ADDS METAR Data INFO
IDs: Format: Raw Decoded Include TAF

Data at: 0857 UTC 16 Jul 2018

METAR for:PAVC (King Cove Arpt, AK, US)
Text:PAVC 160756Z AUTO 29007KT 10SM OVC022 09/07 A3017 RMK AO2 SLP222 T00940067
Temperature: 9.4°C ( 49°F)
Dewpoint: 6.7°C ( 44°F) [RH = 83%]
Pressure (altimeter):30.17 inches Hg (1021.8 mb) [Sea level pressure: 1022.2 mb]
Winds:from the WNW (290 degrees) at 8 MPH (7 knots; 3.6 m/s)
Visibility:10 or more sm (16+ km)
Ceiling:2200 feet AGL
Clouds: overcast cloud deck at 2200 feet AGL
QC Flag:automated observation with no human augmentation
Text:PAVC 160729Z AUTO 26007KT 10SM BKN024 09/06 A3016 RMK AO2
Temperature: 9.0°C ( 48°F)
Dewpoint: 6.0°C ( 43°F) [RH = 81%]
Pressure (altimeter):30.16 inches Hg (1021.4 mb)
Winds:from the W (260 degrees) at 8 MPH (7 knots; 3.6 m/s)
Visibility:10 or more sm (16+ km)
Ceiling:2400 feet AGL
Clouds: broken clouds at 2400 feet AGL
QC Flag:automated observation with no human augmentation
Text:PAVC 160656Z AUTO 26009KT 10SM CLR 09/06 A3015 RMK AO2 SLP217 T00890061
Temperature: 8.9°C ( 48°F)
Dewpoint: 6.1°C ( 43°F) [RH = 83%]
Pressure (altimeter):30.15 inches Hg (1021.1 mb) [Sea level pressure: 1021.7 mb]
Winds:from the W (260 degrees) at 10 MPH (9 knots; 4.6 m/s)
Visibility:10 or more sm (16+ km)
Ceiling:at least 12,000 feet AGL
Clouds:sky clear below 12,000 feet AGL
QC Flag:automated observation with no human augmentation
Text:PAVC 160526Z AUTO 28009KT 10SM SCT028 11/06 A3014 RMK AO2
Temperature: 11.0°C ( 52°F)
Dewpoint: 6.0°C ( 43°F) [RH = 71%]
Pressure (altimeter):30.14 inches Hg (1020.7 mb)
Winds:from the W (280 degrees) at 10 MPH (9 knots; 4.6 m/s)
Visibility:10 or more sm (16+ km)
Ceiling:at least 12,000 feet AGL
Clouds: scattered clouds at 2800 feet AGL
QC Flag:automated observation with no human augmentation
Text:PAVC 160456Z AUTO 27008KT 10SM BKN028 11/07 A3014 RMK AO2 SLP211 T01110067
Temperature: 11.1°C ( 52°F)
Dewpoint: 6.7°C ( 44°F) [RH = 74%]
Pressure (altimeter):30.14 inches Hg (1020.7 mb) [Sea level pressure: 1021.1 mb]
Winds:from the W (270 degrees) at 9 MPH (8 knots; 4.1 m/s)
Visibility:10 or more sm (16+ km)
Ceiling:2800 feet AGL
Clouds: broken clouds at 2800 feet AGL
QC Flag:automated observation with no human augmentation
Text:PAVC 160418Z AUTO 27007KT 10SM BKN029 OVC034 11/07 A3013 RMK AO2
Temperature: 11.0°C ( 52°F)
Dewpoint: 7.0°C ( 45°F) [RH = 76%]
Pressure (altimeter):30.13 inches Hg (1020.4 mb)
Winds:from the W (270 degrees) at 8 MPH (7 knots; 3.6 m/s)
Visibility:10 or more sm (16+ km)
Ceiling:2900 feet AGL
Clouds: broken clouds at 2900 feet AGL, overcast cloud deck at 3400 feet AGL
QC Flag:automated observation with no human augmentation
Text:PAVC 160356Z AUTO 25009KT 10SM BKN036 11/06 A3013 RMK AO2 SLP208 T01110061
Temperature: 11.1°C ( 52°F)
Dewpoint: 6.1°C ( 43°F) [RH = 71%]
Pressure (altimeter):30.13 inches Hg (1020.4 mb) [Sea level pressure: 1020.8 mb]
Winds:from the WSW (250 degrees) at 10 MPH (9 knots; 4.6 m/s)
Visibility:10 or more sm (16+ km)
Ceiling:3600 feet AGL
Clouds: broken clouds at 3600 feet AGL
QC Flag:automated observation with no human augmentation

TAF for:PAVC (King Cove Arpt, AK, US)
Text:No data found